Time;durP1;ratioP1;P1;durP2;ratioP2;P2;SDS_P1;SDS_P2;PMS_P1;PMS_P2;Temp;Humidity;BMP_temperature;BMP_pressure;BME280_temperature;BME280_humidity;BME280_pressure;Samples;Min_cycle;Max_cycle;Signal;HPM_P1;HPM_P2
2023/09/20 00:01:24;;;;;;;5.40;2.50;;;21.00;61.70;;;;;;5020413;28;20112;-67
2023/09/20 00:03:50;;;;;;;4.00;2.30;;;21.00;61.70;;;;;;5022221;28;20022;-64
2023/09/20 00:06:17;;;;;;;4.22;2.65;;;21.00;61.20;;;;;;5021301;28;20052;-66
2023/09/20 00:08:43;;;;;;;3.20;1.75;;;21.00;61.30;;;;;;5023277;28;20025;-64
2023/09/20 00:11:15;;;;;;;3.33;2.33;;;21.00;61.80;;;;;;5007130;28;20026;-64
2023/09/20 00:13:48;;;;;;;5.53;2.50;;;21.00;61.70;;;;;;5026402;28;20479;-66
2023/09/20 00:16:14;;;;;;;3.42;2.05;;;20.90;61.20;;;;;;5021881;28;20029;-61
2023/09/20 00:18:40;;;;;;;3.30;2.08;;;21.00;61.50;;;;;;5022244;28;20112;-66
2023/09/20 00:21:05;;;;;;;2.78;1.98;;;20.90;61.50;;;;;;5019986;28;20626;-66
2023/09/20 00:23:31;;;;;;;4.32;2.25;;;20.90;61.80;;;;;;5021531;28;20488;-64
2023/09/20 00:25:57;;;;;;;3.35;1.85;;;21.00;61.90;;;;;;5020752;28;20036;-64
2023/09/20 00:28:23;;;;;;;4.22;2.10;;;21.00;61.90;;;;;;5020078;28;20041;-63
2023/09/20 00:30:48;;;;;;;3.22;2.00;;;21.00;61.70;;;;;;5018486;28;20026;-66
2023/09/20 00:33:17;;;;;;;2.42;1.63;;;21.00;61.70;;;;;;5021738;28;20083;-66
2023/09/20 00:35:42;;;;;;;5.70;2.30;;;21.00;61.90;;;;;;5021702;28;20031;-65
2023/09/20 00:38:08;;;;;;;5.07;2.22;;;21.00;61.80;;;;;;5022941;28;20101;-65
2023/09/20 00:40:35;;;;;;;3.08;1.70;;;21.00;61.80;;;;;;5021404;28;20041;-66
2023/09/20 00:43:01;;;;;;;2.47;1.70;;;20.90;61.20;;;;;;5021520;28;20468;-65
2023/09/20 00:45:29;;;;;;;3.05;1.65;;;21.00;61.80;;;;;;5018981;28;20037;-66
2023/09/20 00:47:57;;;;;;;2.90;1.73;;;21.00;62.00;;;;;;5026277;28;20045;-66
2023/09/20 00:50:31;;;;;;;3.03;2.00;;;21.00;61.70;;;;;;5026262;28;20045;-66
2023/09/20 00:52:57;;;;;;;1.98;1.70;;;21.00;61.50;;;;;;5022484;28;20217;-64
2023/09/20 00:55:26;;;;;;;3.13;1.98;;;21.00;61.90;;;;;;5001615;28;20071;-65
2023/09/20 00:57:56;;;;;;;3.50;1.63;;;21.00;61.90;;;;;;5019369;28;20029;-65
2023/09/20 01:00:29;;;;;;;3.75;2.38;;;21.00;62.00;;;;;;5017155;28;20037;-65
2023/09/20 01:02:57;;;;;;;2.78;1.70;;;21.00;61.70;;;;;;5022924;28;20032;-65
2023/09/20 01:05:25;;;;;;;2.88;1.80;;;21.00;62.30;;;;;;5021278;28;20405;-61
2023/09/20 01:07:55;;;;;;;3.30;1.73;;;21.00;62.00;;;;;;5023918;28;20098;-65
2023/09/20 01:10:27;;;;;;;2.35;1.42;;;20.90;62.20;;;;;;5023538;28;20036;-65
2023/09/20 01:12:54;;;;;;;4.82;2.00;;;21.00;62.20;;;;;;5005454;28;20067;-65
2023/09/20 01:15:21;;;;;;;2.47;1.38;;;21.00;62.00;;;;;;5025206;28;20408;-65
2023/09/20 01:17:48;;;;;;;2.50;1.48;;;21.00;62.00;;;;;;5015981;28;20034;-64
2023/09/20 01:20:19;;;;;;;2.83;1.73;;;21.00;62.10;;;;;;5019468;28;20033;-65
2023/09/20 01:22:46;;;;;;;3.60;1.58;;;21.00;62.10;;;;;;4999979;28;20117;-64
2023/09/20 01:25:24;;;;;;;2.75;1.83;;;21.00;62.10;;;;;;5019706;28;20186;-64
2023/09/20 01:27:55;;;;;;;2.72;1.45;;;21.00;62.10;;;;;;5016181;28;20398;-64
2023/09/20 01:30:28;;;;;;;2.90;1.50;;;21.00;62.10;;;;;;5017960;28;20045;-64
2023/09/20 01:32:59;;;;;;;1.90;1.40;;;21.00;62.10;;;;;;5016219;28;20088;-63
2023/09/20 01:35:26;;;;;;;3.88;1.65;;;21.00;62.00;;;;;;5023611;28;20026;-66
2023/09/20 01:37:52;;;;;;;3.50;2.28;;;21.00;62.10;;;;;;5018794;28;20034;-64
2023/09/20 01:40:23;;;;;;;3.80;1.77;;;20.90;62.20;;;;;;5021456;28;20186;-66
2023/09/20 01:42:49;;;;;;;3.30;1.70;;;20.90;61.90;;;;;;5017231;28;20088;-66
2023/09/20 01:45:18;;;;;;;3.15;2.05;;;21.00;62.30;;;;;;5019759;28;20038;-65
2023/09/20 01:47:51;;;;;;;3.33;1.67;;;21.00;62.70;;;;;;5016619;28;20037;-62
2023/09/20 01:50:25;;;;;;;4.63;2.30;;;20.90;62.50;;;;;;5021242;28;20037;-65
2023/09/20 01:52:56;;;;;;;3.20;1.70;;;21.00;62.60;;;;;;5017979;28;20117;-62
2023/09/20 01:55:24;;;;;;;3.20;1.80;;;21.00;63.20;;;;;;5015557;28;20500;-66
2023/09/20 01:57:55;;;;;;;2.15;1.40;;;21.00;62.50;;;;;;5017762;28;20395;-62
2023/09/20 02:00:22;;;;;;;2.72;1.67;;;21.00;62.30;;;;;;5016401;28;20103;-66
2023/09/20 02:02:55;;;;;;;3.17;1.60;;;20.90;62.50;;;;;;5019234;28;20400;-65
2023/09/20 02:05:23;;;;;;;2.63;1.50;;;21.00;62.80;;;;;;5021197;28;20034;-65
2023/09/20 02:07:50;;;;;;;3.00;1.80;;;20.90;62.30;;;;;;5022672;28;20033;-65
2023/09/20 02:10:16;;;;;;;3.05;1.45;;;20.90;62.90;;;;;;5021717;28;20025;-63
2023/09/20 02:12:46;;;;;;;3.58;1.90;;;20.90;62.70;;;;;;4999458;28;20033;-61
2023/09/20 02:15:13;;;;;;;2.92;1.40;;;21.00;62.60;;;;;;5019144;28;20472;-62
2023/09/20 02:17:39;;;;;;;2.78;1.30;;;21.00;62.70;;;;;;5022823;28;20049;-63
2023/09/20 02:20:24;;;;;;;2.45;1.50;;;21.00;62.80;;;;;;5022168;28;20034;-62
2023/09/20 02:22:52;;;;;;;1.80;1.50;;;20.90;62.70;;;;;;5017339;28;20029;-64
2023/09/20 02:25:20;;;;;;;3.45;1.90;;;20.90;62.60;;;;;;5016019;28;20377;-58
2023/09/20 02:27:47;;;;;;;3.80;1.52;;;21.00;62.80;;;;;;5015232;28;20061;-63
2023/09/20 02:30:20;;;;;;;3.40;1.50;;;20.90;62.90;;;;;;5014988;28;20034;-66
2023/09/20 02:32:50;;;;;;;2.67;1.42;;;20.90;62.70;;;;;;5022607;28;20460;-62
2023/09/20 02:35:16;;;;;;;2.42;1.52;;;21.00;62.90;;;;;;5001944;28;20041;-65
2023/09/20 02:37:43;;;;;;;1.85;1.30;;;21.00;62.60;;;;;;5023101;28;20067;-64
2023/09/20 02:40:15;;;;;;;2.85;1.23;;;21.00;62.70;;;;;;5022853;28;20120;-66
2023/09/20 02:42:48;;;;;;;2.45;1.45;;;21.00;62.50;;;;;;5023623;28;20025;-63
2023/09/20 02:45:18;;;;;;;2.72;1.60;;;20.90;62.80;;;;;;5018622;28;20452;-62
2023/09/20 02:47:46;;;;;;;2.90;1.73;;;21.00;62.80;;;;;;5017167;28;20501;-63
2023/09/20 02:50:13;;;;;;;1.80;1.30;;;21.00;62.70;;;;;;5020182;28;20148;-62
2023/09/20 02:52:42;;;;;;;2.33;1.20;;;21.00;62.80;;;;;;5013556;28;20469;-66
2023/09/20 02:55:08;;;;;;;2.10;1.20;;;21.00;62.70;;;;;;5014980;28;20399;-61
2023/09/20 02:57:37;;;;;;;2.65;1.30;;;21.00;62.80;;;;;;5016429;28;20617;-63
2023/09/20 03:00:14;;;;;;;1.98;1.40;;;21.00;62.80;;;;;;5014700;28;20441;-62
2023/09/20 03:02:44;;;;;;;3.25;1.85;;;21.00;62.70;;;;;;5019250;28;20369;-65
2023/09/20 03:05:11;;;;;;;1.92;1.40;;;21.00;62.60;;;;;;5022973;28;20037;-64
2023/09/20 03:07:37;;;;;;;2.45;1.30;;;21.00;62.60;;;;;;5019534;28;20034;-65
2023/09/20 03:10:05;;;;;;;2.05;1.10;;;21.00;62.80;;;;;;5017973;28;20038;-65
2023/09/20 03:12:32;;;;;;;1.27;0.98;;;21.00;62.60;;;;;;5019249;28;20034;-65
2023/09/20 03:15:02;;;;;;;1.50;1.02;;;21.00;62.70;;;;;;5024818;28;20392;-65
2023/09/20 03:17:28;;;;;;;2.30;1.65;;;21.00;62.80;;;;;;5005063;28;20594;-65
2023/09/20 03:19:53;;;;;;;2.28;1.13;;;21.00;62.80;;;;;;5021247;28;20141;-65
2023/09/20 03:22:19;;;;;;;2.45;1.48;;;21.00;62.90;;;;;;5017927;28;20033;-64
2023/09/20 03:24:47;;;;;;;2.65;1.27;;;21.00;62.80;;;;;;5018676;28;20528;-61
2023/09/20 03:27:15;;;;;;;1.08;0.93;;;21.00;62.60;;;;;;5018234;28;20038;-64
2023/09/20 03:29:42;;;;;;;1.73;1.15;;;21.00;62.80;;;;;;5017795;28;20111;-61
2023/09/20 03:32:08;;;;;;;1.63;1.13;;;21.00;62.90;;;;;;5022692;28;20088;-61
2023/09/20 03:34:33;;;;;;;1.58;0.90;;;21.00;62.90;;;;;;5027979;28;20034;-65
2023/09/20 03:36:59;;;;;;;1.73;0.90;;;21.00;62.80;;;;;;5024786;28;20395;-63
2023/09/20 03:39:24;;;;;;;1.08;0.90;;;21.00;62.80;;;;;;5017528;28;20048;-65
2023/09/20 03:41:51;;;;;;;1.58;0.90;;;20.90;62.80;;;;;;5016959;28;20176;-62
2023/09/20 03:44:19;;;;;;;2.03;0.90;;;21.00;63.00;;;;;;5019595;28;20037;-64
2023/09/20 03:46:44;;;;;;;2.35;0.88;;;21.00;62.80;;;;;;5019837;28;20071;-64
2023/09/20 03:49:10;;;;;;;2.08;1.00;;;21.00;62.70;;;;;;5004067;28;20487;-62
2023/09/20 03:51:36;;;;;;;2.22;1.23;;;21.00;62.80;;;;;;5019953;28;20041;-64
2023/09/20 03:54:02;;;;;;;2.08;0.90;;;21.00;62.60;;;;;;5019234;28;20055;-62
2023/09/20 03:56:28;;;;;;;1.15;0.80;;;20.90;62.60;;;;;;5017921;28;20492;-66
2023/09/20 03:58:55;;;;;;;1.35;1.00;;;20.90;62.10;;;;;;5020802;28;20061;-65
2023/09/20 04:01:21;;;;;;;1.02;0.75;;;20.90;62.60;;;;;;5024958;28;20034;-64
2023/09/20 04:03:46;;;;;;;1.30;1.00;;;20.90;62.80;;;;;;5021259;28;20515;-64
2023/09/20 04:06:12;;;;;;;1.33;0.90;;;20.90;62.70;;;;;;5019273;28;20033;-65
2023/09/20 04:08:37;;;;;;;1.63;1.00;;;20.90;62.80;;;;;;5023998;28;20046;-65
2023/09/20 04:11:05;;;;;;;2.05;0.90;;;21.00;62.80;;;;;;5018062;28;20459;-61
2023/09/20 04:13:31;;;;;;;1.50;0.88;;;21.00;62.80;;;;;;5019554;28;20033;-65
2023/09/20 04:15:56;;;;;;;2.00;0.90;;;21.00;62.80;;;;;;5017213;28;20030;-61
2023/09/20 04:18:22;;;;;;;1.92;0.80;;;20.90;62.90;;;;;;5016547;28;20037;-65
2023/09/20 04:20:47;;;;;;;1.42;0.88;;;21.00;62.90;;;;;;5019143;28;20034;-61
2023/09/20 04:23:13;;;;;;;1.08;0.85;;;20.90;62.70;;;;;;5015422;28;20057;-65
2023/09/20 04:25:39;;;;;;;1.42;1.00;;;21.00;62.90;;;;;;5018616;28;20026;-65
2023/09/20 04:28:05;;;;;;;1.25;0.68;;;20.90;62.60;;;;;;5003170;28;20030;-63
2023/09/20 04:30:31;;;;;;;1.98;1.00;;;20.90;63.00;;;;;;5028633;28;20108;-65
2023/09/20 04:32:56;;;;;;;0.85;0.65;;;20.90;62.60;;;;;;5022745;28;20116;-65
2023/09/20 04:35:22;;;;;;;2.22;1.05;;;20.90;62.90;;;;;;5020136;28;20061;-60
2023/09/20 04:37:47;;;;;;;1.95;1.00;;;20.90;63.00;;;;;;5027188;28;20037;-64
2023/09/20 04:40:13;;;;;;;2.42;0.88;;;20.90;62.90;;;;;;5017231;28;20037;-65
2023/09/20 04:42:39;;;;;;;1.75;0.80;;;20.90;62.90;;;;;;5020752;28;20036;-65
2023/09/20 04:45:12;;;;;;;2.85;0.80;;;20.90;62.90;;;;;;5018136;28;20056;-65
2023/09/20 04:47:37;;;;;;;1.38;0.70;;;20.90;62.90;;;;;;5017926;28;20116;-64
2023/09/20 04:50:03;;;;;;;1.25;0.85;;;20.90;63.00;;;;;;5016387;28;20184;-64
2023/09/20 04:52:30;;;;;;;1.48;0.85;;;20.90;63.00;;;;;;5015673;28;20504;-64
2023/09/20 04:54:56;;;;;;;1.80;1.27;;;20.90;62.90;;;;;;5014959;28;20248;-64
2023/09/20 04:57:21;;;;;;;1.98;0.60;;;20.90;63.10;;;;;;5019679;28;20385;-64
2023/09/20 04:59:47;;;;;;;1.70;0.85;;;20.90;63.00;;;;;;5023674;28;20057;-59
2023/09/20 05:02:14;;;;;;;0.98;0.77;;;20.90;62.90;;;;;;5019921;28;20056;-65
2023/09/20 05:04:40;;;;;;;1.23;0.80;;;21.00;62.90;;;;;;5021441;28;20113;-61
2023/09/20 05:07:06;;;;;;;1.58;0.85;;;21.00;63.00;;;;;;5017029;28;20038;-65
2023/09/20 05:09:34;;;;;;;0.85;0.77;;;20.90;62.90;;;;;;5020700;28;20662;-63
2023/09/20 05:12:00;;;;;;;1.10;0.70;;;20.90;63.00;;;;;;5021489;28;20124;-65
2023/09/20 05:14:27;;;;;;;1.33;0.88;;;20.90;62.60;;;;;;5018007;28;20124;-65
2023/09/20 05:16:52;;;;;;;1.17;0.60;;;20.90;63.10;;;;;;5017941;28;20081;-65
2023/09/20 05:19:18;;;;;;;1.85;0.85;;;20.90;63.00;;;;;;5017163;28;20528;-65
2023/09/20 05:21:44;;;;;;;1.17;0.73;;;20.90;63.00;;;;;;5019378;28;20048;-60
2023/09/20 05:24:09;;;;;;;1.10;0.80;;;20.90;63.00;;;;;;5013650;28;20392;-64
2023/09/20 05:26:35;;;;;;;4.22;0.95;;;20.90;63.00;;;;;;5021185;28;20232;-64
2023/09/20 05:29:01;;;;;;;1.50;0.70;;;20.90;63.00;;;;;;5018828;28;20557;-59
2023/09/20 05:31:28;;;;;;;1.40;0.90;;;20.90;62.90;;;;;;5021139;28;20041;-61
2023/09/20 05:33:55;;;;;;;1.83;0.88;;;21.00;62.90;;;;;;5024045;28;20078;-61
2023/09/20 05:36:26;;;;;;;1.80;1.10;;;21.00;62.80;;;;;;5018891;28;20036;-63
2023/09/20 05:38:53;;;;;;;1.85;0.80;;;21.00;62.90;;;;;;5014611;28;20104;-63
2023/09/20 05:41:18;;;;;;;2.22;1.30;;;21.00;62.80;;;;;;5021690;28;20021;-63
2023/09/20 05:43:44;;;;;;;1.92;0.85;;;21.00;62.80;;;;;;5001741;28;20025;-59
2023/09/20 05:46:13;;;;;;;1.50;0.90;;;21.00;62.70;;;;;;5016024;28;20079;-64
2023/09/20 05:48:39;;;;;;;1.85;0.88;;;21.00;62.60;;;;;;5015647;28;20120;-63
2023/09/20 05:51:05;;;;;;;1.38;0.85;;;21.00;62.70;;;;;;5017704;28;20033;-62
2023/09/20 05:53:30;;;;;;;1.45;0.90;;;21.00;62.70;;;;;;5018416;28;20045;-61
2023/09/20 05:55:56;;;;;;;2.15;0.93;;;21.00;62.60;;;;;;5019302;28;20029;-64
2023/09/20 05:58:22;;;;;;;1.58;0.80;;;21.00;62.50;;;;;;5026882;28;20111;-64
2023/09/20 06:00:50;;;;;;;2.13;1.02;;;21.00;62.50;;;;;;5023383;28;20391;-64
2023/09/20 06:03:16;;;;;;;2.08;1.15;;;21.00;62.50;;;;;;5014940;28;20033;-64
2023/09/20 06:05:41;;;;;;;1.70;0.90;;;21.00;62.50;;;;;;5025559;28;20034;-64
2023/09/20 06:08:07;;;;;;;2.22;1.05;;;21.00;62.40;;;;;;5015510;28;20451;-61
2023/09/20 06:10:33;;;;;;;1.30;0.98;;;21.00;62.40;;;;;;5019863;28;20472;-64
2023/09/20 06:12:58;;;;;;;1.67;1.02;;;21.00;62.30;;;;;;5018266;28;20038;-64
2023/09/20 06:15:24;;;;;;;0.90;0.80;;;21.00;62.30;;;;;;5016260;28;20267;-65
2023/09/20 06:17:51;;;;;;;1.70;0.80;;;21.00;62.30;;;;;;5017656;28;20037;-59
2023/09/20 06:20:19;;;;;;;2.55;0.98;;;21.00;62.40;;;;;;5016965;28;20037;-63
2023/09/20 06:22:51;;;;;;;3.90;1.10;;;20.90;61.90;;;;;;5019144;28;20053;-65
2023/09/20 06:25:19;;;;;;;3.15;1.27;;;20.90;61.90;;;;;;5019646;28;20312;-65
2023/09/20 06:27:44;;;;;;;1.92;1.10;;;20.90;61.50;;;;;;5017299;28;20143;-66
2023/09/20 06:30:13;;;;;;;3.60;1.08;;;20.90;61.90;;;;;;5016737;28;20570;-63
2023/09/20 06:32:40;;;;;;;2.65;1.20;;;20.90;62.20;;;;;;4996821;28;20040;-65
2023/09/20 06:35:07;;;;;;;2.90;1.10;;;20.90;62.70;;;;;;5014437;28;20034;-60
2023/09/20 06:37:34;;;;;;;2.60;1.10;;;20.90;63.40;;;;;;5016005;28;20088;-65
2023/09/20 06:40:00;;;;;;;3.33;1.23;;;20.90;63.80;;;;;;5017135;28;20507;-65
2023/09/20 06:42:28;;;;;;;3.72;1.20;;;20.90;63.50;;;;;;5016317;28;20496;-64
2023/09/20 06:44:55;;;;;;;4.40;1.20;;;20.90;63.70;;;;;;5015213;28;20060;-63
2023/09/20 06:47:21;;;;;;;3.88;1.40;;;20.90;63.50;;;;;;5016003;28;20122;-61
2023/09/20 06:49:47;;;;;;;1.90;1.00;;;20.90;63.40;;;;;;5017989;28;20079;-64
2023/09/20 06:52:12;;;;;;;5.90;1.23;;;20.90;63.40;;;;;;5016961;28;20037;-64
2023/09/20 06:54:38;;;;;;;4.07;1.25;;;20.90;63.40;;;;;;5022136;28;20030;-63
2023/09/20 06:57:05;;;;;;;3.75;1.40;;;20.90;63.40;;;;;;5021115;28;20034;-61
2023/09/20 06:59:32;;;;;;;5.82;1.55;;;20.90;63.30;;;;;;5020431;28;20037;-64
2023/09/20 07:02:01;;;;;;;2.25;1.00;;;20.80;63.20;;;;;;5019355;28;20037;-63
2023/09/20 07:04:27;;;;;;;3.08;1.10;;;20.80;62.90;;;;;;5016536;28;20938;-63
2023/09/20 07:07:03;;;;;;;2.90;1.52;;;20.80;63.10;;;;;;5016249;28;20041;-64
2023/09/20 07:09:31;;;;;;;2.42;1.27;;;20.80;63.00;;;;;;5018632;28;20135;-64
2023/09/20 07:11:57;;;;;;;2.08;1.17;;;20.80;63.00;;;;;;5001224;28;20026;-64
2023/09/20 07:14:23;;;;;;;1.75;1.20;;;20.70;62.80;;;;;;5015504;28;20030;-59
2023/09/20 07:16:52;;;;;;;2.30;1.10;;;20.70;62.70;;;;;;5016219;28;20041;-60
2023/09/20 07:19:19;;;;;;;2.72;1.10;;;20.70;62.60;;;;;;5015103;28;20033;-64
2023/09/20 07:21:45;;;;;;;5.57;1.05;;;20.70;62.60;;;;;;5018354;28;20076;-63
2023/09/20 07:24:12;;;;;;;2.35;1.15;;;20.80;62.40;;;;;;5017474;28;20504;-64
2023/09/20 07:26:39;;;;;;;2.22;1.35;;;20.80;62.60;;;;;;5018740;28;20033;-64
2023/09/20 07:29:05;;;;;;;2.22;1.50;;;20.70;62.60;;;;;;5020413;28;20030;-63
2023/09/20 07:31:36;;;;;;;2.75;1.40;;;20.70;62.60;;;;;;5018391;28;20399;-61
2023/09/20 07:34:04;;;;;;;2.33;1.13;;;20.70;62.40;;;;;;5017973;28;20450;-64
2023/09/20 07:36:30;;;;;;;3.47;1.25;;;20.70;62.60;;;;;;5018360;28;20038;-64
2023/09/20 07:38:56;;;;;;;2.78;1.50;;;20.70;62.40;;;;;;5016587;28;20030;-65
2023/09/20 07:41:22;;;;;;;2.55;1.10;;;20.70;62.30;;;;;;5018152;28;20038;-65
2023/09/20 07:43:47;;;;;;;2.88;1.27;;;20.70;62.50;;;;;;5013186;28;20037;-65
2023/09/20 07:46:15;;;;;;;2.22;1.42;;;20.70;62.60;;;;;;5016451;28;20018;-62
2023/09/20 07:48:48;;;;;;;3.72;1.33;;;20.70;62.50;;;;;;5014432;28;20117;-65
2023/09/20 07:51:14;;;;;;;3.38;1.40;;;20.60;62.50;;;;;;5015794;28;20046;-64
2023/09/20 07:53:41;;;;;;;2.78;1.30;;;20.60;62.60;;;;;;5017092;28;20224;-63
2023/09/20 07:56:11;;;;;;;2.55;1.20;;;20.60;62.70;;;;;;5022154;28;20026;-62
2023/09/20 07:58:36;;;;;;;3.88;1.35;;;20.60;62.70;;;;;;5019079;28;20040;-62
2023/09/20 08:01:18;;;;;;;1.85;1.02;;;20.60;62.50;;;;;;5021798;28;20466;-64
2023/09/20 08:03:53;;;;;;;4.03;1.23;;;20.50;62.20;;;;;;5003784;28;20035;-65
2023/09/20 08:06:19;;;;;;;3.65;1.40;;;20.60;62.30;;;;;;5021430;28;20030;-63
2023/09/20 08:08:45;;;;;;;3.70;1.23;;;20.50;62.40;;;;;;5020514;28;20029;-63
2023/09/20 08:11:11;;;;;;;2.67;1.25;;;20.60;62.40;;;;;;5021073;28;20315;-66
2023/09/20 08:13:36;;;;;;;3.80;1.23;;;20.60;62.30;;;;;;5020111;28;20053;-58
2023/09/20 08:16:03;;;;;;;2.28;1.30;;;20.60;62.30;;;;;;5019560;28;20025;-63
2023/09/20 08:21:13;;;;;;;3.40;1.20;;;20.50;62.40;;;;;;5021704;28;20412;-63
2023/09/20 09:02:17;;;;;;;5.18;1.73;;;20.60;62.90;;;;;;5018873;28;20168;-65
2023/09/20 09:05:03;;;;;;;3.55;1.45;;;20.60;63.20;;;;;;5019858;28;20395;-64
2023/09/20 09:07:29;;;;;;;3.60;1.27;;;20.70;63.40;;;;;;5020311;28;20585;-64
2023/09/20 09:09:55;;;;;;;2.67;1.48;;;20.70;63.40;;;;;;5020600;28;20037;-64
2023/09/20 09:12:21;;;;;;;5.15;1.77;;;20.70;63.20;;;;;;5018973;28;20038;-64
2023/09/20 09:14:48;;;;;;;3.85;1.67;;;20.70;63.40;;;;;;5022792;28;20033;-58
2023/09/20 09:17:14;;;;;;;5.50;1.40;;;20.60;63.40;;;;;;5023242;28;20034;-64
2023/09/20 09:19:40;;;;;;;3.03;1.30;;;20.60;63.20;;;;;;5019291;28;20041;-65
2023/09/20 09:22:06;;;;;;;5.53;1.65;;;20.60;63.20;;;;;;5018245;28;20037;-62
2023/09/20 09:24:43;;;;;;;3.58;1.40;;;20.60;63.20;;;;;;5019087;28;20036;-64
2023/09/20 09:27:09;;;;;;;4.53;1.42;;;20.70;63.20;;;;;;5020438;28;20033;-63
2023/09/20 09:29:35;;;;;;;4.78;1.67;;;20.60;63.30;;;;;;5021554;28;20026;-64
2023/09/20 09:32:02;;;;;;;4.25;2.03;;;20.60;63.10;;;;;;5018983;28;20273;-59
2023/09/20 09:34:28;;;;;;;5.72;1.58;;;20.60;63.10;;;;;;5021199;28;20033;-60
2023/09/20 09:36:53;;;;;;;3.50;2.00;;;20.60;63.00;;;;;;5001164;28;20040;-65
2023/09/20 09:39:19;;;;;;;3.70;1.85;;;20.70;62.80;;;;;;5021922;28;20124;-64
2023/09/20 09:41:46;;;;;;;5.63;1.73;;;20.70;63.00;;;;;;5018915;28;20110;-59
2023/09/20 09:44:12;;;;;;;4.60;1.80;;;20.70;63.00;;;;;;5023418;28;20117;-62
2023/09/20 09:46:41;;;;;;;5.82;1.42;;;20.70;63.00;;;;;;5020881;28;20094;-64
2023/09/20 09:49:11;;;;;;;3.88;2.00;;;20.70;63.00;;;;;;5017546;28;20487;-58
2023/09/20 09:51:45;;;;;;;3.63;1.70;;;20.60;63.00;;;;;;5017612;28;20033;-64
2023/09/20 09:54:12;;;;;;;3.22;1.70;;;20.60;62.90;;;;;;5016811;28;20025;-65
2023/09/20 09:56:38;;;;;;;4.70;1.65;;;20.60;62.90;;;;;;5019963;28;20508;-64
2023/09/20 09:59:05;;;;;;;7.00;1.90;;;20.70;62.90;;;;;;5019884;28;20669;-64
2023/09/20 10:01:36;;;;;;;3.08;1.70;;;20.70;62.90;;;;;;5018627;28;20079;-64
2023/09/20 10:04:08;;;;;;;5.45;2.17;;;20.70;63.20;;;;;;5018239;28;20041;-64
2023/09/20 10:06:47;;;;;;;4.15;1.83;;;20.60;63.10;;;;;;5017323;28;20061;-64
2023/09/20 10:09:17;;;;;;;4.50;1.85;;;20.70;63.00;;;;;;5000934;28;20045;-65
2023/09/20 10:11:43;;;;;;;4.93;2.10;;;20.60;62.80;;;;;;5021954;28;20034;-63
2023/09/20 10:14:10;;;;;;;5.55;1.90;;;20.70;63.10;;;;;;5023161;28;20075;-65
2023/09/20 10:16:42;;;;;;;4.25;2.17;;;20.70;63.10;;;;;;5019657;28;20033;-64
2023/09/20 10:19:12;;;;;;;5.82;2.50;;;20.70;63.10;;;;;;5018534;28;20056;-64
2023/09/20 10:21:40;;;;;;;6.82;2.45;;;20.70;63.20;;;;;;5019370;28;20088;-65
2023/09/20 10:24:08;;;;;;;9.57;2.90;;;20.70;63.00;;;;;;5020758;28;20109;-64
2023/09/20 10:26:35;;;;;;;3.95;1.40;;;20.70;62.90;;;;;;5020072;28;20052;-63
2023/09/20 10:29:26;;;;;;;5.82;1.80;;;20.70;63.00;;;;;;5018807;28;20116;-61
2023/09/20 10:32:17;;;;;;;5.00;1.60;;;20.80;63.10;;;;;;5021408;28;20029;-66
2023/09/20 10:35:32;;;;;;;3.40;1.80;;;20.80;63.50;;;;;;5020817;28;20033;-62
2023/09/20 10:38:04;;;;;;;4.32;1.55;;;20.80;63.60;;;;;;5019281;28;20170;-66
2023/09/20 10:40:45;;;;;;;3.25;1.30;;;20.80;63.20;;;;;;5017427;28;20262;-64
2023/09/20 10:43:14;;;;;;;2.63;1.70;;;20.80;63.00;;;;;;5020094;28;20088;-65
2023/09/20 10:45:40;;;;;;;4.13;1.50;;;20.80;63.10;;;;;;5017891;28;20072;-64
2023/09/20 10:48:15;;;;;;;3.15;1.40;;;20.80;63.40;;;;;;5019646;28;20499;-66
2023/09/20 10:50:57;;;;;;;2.23;1.30;;;20.80;63.50;;;;;;5020714;28;20026;-64
2023/09/20 10:53:43;;;;;;;2.65;1.08;;;20.80;63.30;;;;;;5017173;28;20421;-65
2023/09/20 10:56:10;;;;;;;5.13;1.70;;;20.80;64.00;;;;;;5020413;28;20451;-65
2023/09/20 10:58:42;;;;;;;1.90;1.25;;;20.80;63.30;;;;;;5018642;28;20061;-65
2023/09/20 11:01:08;;;;;;;1.10;0.90;;;20.80;63.50;;;;;;5017854;28;20046;-62
2023/09/20 11:03:34;;;;;;;4.05;1.48;;;20.80;64.10;;;;;;5023744;28;20092;-62
2023/09/20 11:06:00;;;;;;;6.25;1.83;;;20.80;63.30;;;;;;5019827;28;20133;-65
2023/09/20 11:08:27;;;;;;;24.52;17.75;;;20.90;63.40;;;;;;5020362;28;20029;-66
2023/09/20 11:10:54;;;;;;;185.25;130.95;;;20.90;63.60;;;;;;5019990;28;20442;-67
2023/09/20 11:13:22;;;;;;;175.43;118.55;;;20.90;64.10;;;;;;5021025;28;20024;-66
2023/09/20 11:15:48;;;;;;;218.38;139.98;;;20.90;64.10;;;;;;5020416;28;20050;-67
2023/09/20 11:18:19;;;;;;;291.15;181.27;;;20.90;64.90;;;;;;5019243;28;20018;-60
2023/09/20 11:20:46;;;;;;;346.35;227.65;;;20.90;65.10;;;;;;5021679;28;20042;-66
2023/09/20 11:23:13;;;;;;;468.58;332.88;;;20.90;65.00;;;;;;5019514;28;20034;-66
2023/09/20 11:25:41;;;;;;;305.77;207.57;;;20.90;65.80;;;;;;5015217;28;20053;-66
2023/09/20 11:28:09;;;;;;;247.63;156.88;;;21.00;65.90;;;;;;5018507;28;20059;-66
2023/09/20 11:30:34;;;;;;;275.02;168.88;;;20.90;65.30;;;;;;5021865;28;20040;-63
2023/09/20 11:33:03;;;;;;;233.60;146.77;;;21.00;66.10;;;;;;5020688;28;20041;-66
2023/09/20 11:35:42;;;;;;;198.02;126.68;;;20.90;65.70;;;;;;5025651;28;20045;-60
2023/09/20 11:38:10;;;;;;;159.07;103.25;;;21.00;66.00;;;;;;5021434;28;20294;-62
2023/09/20 11:40:37;;;;;;;114.63;70.70;;;20.90;65.90;;;;;;5000698;28;20041;-66
2023/09/20 11:43:03;;;;;;;74.20;47.63;;;21.00;65.50;;;;;;5020892;28;20492;-65
2023/09/20 11:45:29;;;;;;;68.30;42.17;;;21.00;65.60;;;;;;5022111;28;20087;-64
2023/09/20 11:47:56;;;;;;;71.95;42.08;;;21.00;65.70;;;;;;5022662;28;20026;-66
2023/09/20 11:50:24;;;;;;;40.33;27.02;;;21.00;65.40;;;;;;5002828;28;20065;-62
2023/09/20 11:52:50;;;;;;;37.92;23.75;;;21.00;65.20;;;;;;5021784;28;20069;-66
2023/09/20 11:55:19;;;;;;;13.70;9.82;;;21.00;65.40;;;;;;5023230;28;20103;-66
2023/09/20 11:57:45;;;;;;;11.02;6.55;;;21.00;65.30;;;;;;5023581;28;20452;-63
2023/09/20 12:00:25;;;;;;;10.82;6.78;;;21.00;65.20;;;;;;5023958;28;20221;-67
2023/09/20 12:02:53;;;;;;;9.57;6.40;;;21.00;64.70;;;;;;5021120;28;20025;-62
2023/09/20 12:05:19;;;;;;;8.68;4.55;;;21.00;64.80;;;;;;5024223;28;20061;-66
2023/09/20 12:07:58;;;;;;;5.28;3.65;;;21.00;64.80;;;;;;5022305;28;20072;-64
2023/09/20 12:10:25;;;;;;;6.60;3.88;;;21.00;65.00;;;;;;5005225;28;20034;-67
2023/09/20 12:12:54;;;;;;;7.53;4.10;;;21.00;64.70;;;;;;5025366;28;20033;-66
2023/09/20 12:15:23;;;;;;;5.15;3.47;;;21.00;64.70;;;;;;5024425;28;20408;-63
2023/09/20 12:17:53;;;;;;;6.28;2.95;;;21.00;64.70;;;;;;5006792;28;20539;-62
2023/09/20 12:20:19;;;;;;;5.18;2.58;;;21.00;65.00;;;;;;5005325;28;20057;-61
2023/09/20 12:22:44;;;;;;;5.07;2.13;;;21.00;64.30;;;;;;5018083;28;20060;-60
2023/09/20 12:25:16;;;;;;;2.03;1.20;;;21.00;64.30;;;;;;5019699;28;20998;-65
2023/09/20 12:27:48;;;;;;;3.67;1.65;;;21.00;64.10;;;;;;5025571;28;20523;-63
2023/09/20 12:30:14;;;;;;;2.40;1.55;;;21.00;63.70;;;;;;5022975;28;20041;-63
2023/09/20 12:32:43;;;;;;;3.17;1.25;;;21.10;63.50;;;;;;5021325;28;20034;-64
2023/09/20 12:35:09;;;;;;;3.22;1.65;;;21.10;63.00;;;;;;4994713;28;20032;-64
2023/09/20 12:37:35;;;;;;;2.03;1.52;;;21.10;62.80;;;;;;5021581;28;20033;-66
2023/09/20 12:40:08;;;;;;;1.92;1.25;;;21.10;63.00;;;;;;5023878;28;20395;-66
2023/09/20 12:42:40;;;;;;;4.88;1.83;;;21.10;62.90;;;;;;5017716;28;20109;-62
2023/09/20 12:45:07;;;;;;;1.73;1.20;;;21.10;63.00;;;;;;5023335;28;20113;-66
2023/09/20 12:47:33;;;;;;;2.33;1.50;;;21.10;63.10;;;;;;5022289;28;20040;-66
2023/09/20 12:50:00;;;;;;;2.30;1.20;;;21.10;63.90;;;;;;5014697;28;20396;-66
2023/09/20 12:52:26;;;;;;;2.42;1.42;;;21.10;63.40;;;;;;5023298;28;20585;-66
2023/09/20 12:54:51;;;;;;;1.92;1.15;;;21.10;63.30;;;;;;5012297;28;20065;-67
2023/09/20 12:57:17;;;;;;;3.83;1.67;;;21.10;63.10;;;;;;5023976;28;20452;-66
2023/09/20 12:59:42;;;;;;;2.30;1.42;;;21.10;62.70;;;;;;5020435;28;20041;-64
2023/09/20 13:02:08;;;;;;;2.67;0.95;;;21.10;62.90;;;;;;5020921;28;20038;-61
2023/09/20 13:04:34;;;;;;;3.03;1.10;;;21.20;63.10;;;;;;5021946;28;20037;-64
2023/09/20 13:06:59;;;;;;;1.67;1.20;;;21.20;63.00;;;;;;5020842;28;20032;-66
2023/09/20 13:09:25;;;;;;;1.67;0.95;;;21.20;63.00;;;;;;5022138;28;20045;-66
2023/09/20 13:11:51;;;;;;;2.70;1.10;;;21.20;63.20;;;;;;5018545;28;20025;-62
2023/09/20 13:14:19;;;;;;;2.80;1.05;;;21.20;62.90;;;;;;5025038;28;20033;-66
2023/09/20 13:16:49;;;;;;;1.20;1.02;;;21.20;63.20;;;;;;5022395;28;20485;-62
2023/09/20 13:19:16;;;;;;;3.38;1.33;;;21.20;63.20;;;;;;5020472;28;20030;-64
2023/09/20 13:21:41;;;;;;;4.63;1.10;;;21.20;62.90;;;;;;5018184;28;20034;-64
2023/09/20 13:24:08;;;;;;;7.43;1.20;;;21.20;62.70;;;;;;5020287;28;20033;-66
2023/09/20 13:26:35;;;;;;;4.75;1.45;;;21.30;62.90;;;;;;5020067;28;20028;-61
2023/09/20 13:29:01;;;;;;;2.67;0.95;;;21.30;62.70;;;;;;5020290;28;20045;-64
2023/09/20 13:31:26;;;;;;;1.80;1.00;;;21.30;63.00;;;;;;5003537;28;20124;-62